Time;durP1;ratioP1;P1;durP2;ratioP2;P2;SDS_P1;SDS_P2;PMS_P1;PMS_P2;Temp;Humidity;BMP_temperature;BMP_pressure;BME280_temperature;BME280_humidity;BME280_pressure;Samples;Min_cycle;Max_cycle;Signal;HPM_P1;HPM_P2
2022/11/03 00:01:05;;;;;;;;;;;;;;;20.55;64.31;101324.94;7409775;19;1533;-61
2022/11/03 00:03:33;;;;;;;;;;;;;;;20.55;64.68;101347.31;7408424;19;1428;-61
2022/11/03 00:06:07;;;;;;;;;;;;;;;20.60;64.45;101345.09;7411438;19;999;-61
2022/11/03 00:08:37;;;;;;;;;;;;;;;20.58;64.34;101340.81;7410384;19;1561;-61
2022/11/03 00:11:12;;;;;;;;;;;;;;;20.53;64.37;101341.22;7406749;19;1865;-61
2022/11/03 00:13:41;;;;;;;;;;;;;;;20.55;64.37;101336.56;7409793;19;1715;-61
2022/11/03 00:16:11;;;;;;;;;;;;;;;20.54;64.45;101334.00;7410542;19;1553;-64
2022/11/03 00:18:39;;;;;;;;;;;;;;;20.55;64.50;101346.44;7411582;19;1073;-61
2022/11/03 00:21:08;;;;;;;;;;;;;;;20.55;64.33;101352.69;7411253;19;1737;-64
2022/11/03 00:23:38;;;;;;;;;;;;;;;20.57;64.50;101342.66;7409949;19;1714;-64
2022/11/03 00:26:07;;;;;;;;;;;;;;;20.56;64.52;101348.16;7409276;19;1499;-64
2022/11/03 00:28:38;;;;;;;;;;;;;;;20.58;64.54;101360.47;7409564;19;1391;-64
2022/11/03 00:31:12;;;;;;;;;;;;;;;20.55;64.11;101360.75;7407915;19;1849;-63
2022/11/03 00:33:41;;;;;;;;;;;;;;;20.53;64.34;101356.47;7408973;19;1598;-64
2022/11/03 00:36:10;;;;;;;;;;;;;;;20.55;64.15;101367.94;7407435;19;1420;-64
2022/11/03 00:38:39;;;;;;;;;;;;;;;20.54;64.38;101377.00;7409994;19;1334;-64
2022/11/03 00:41:07;;;;;;;;;;;;;;;20.51;64.50;101356.59;7410724;19;1021;-64
2022/11/03 00:43:38;;;;;;;;;;;;;;;20.51;64.30;101367.34;7410535;19;1754;-64
2022/11/03 00:46:07;;;;;;;;;;;;;;;20.52;64.20;101373.59;7409366;19;1533;-64
2022/11/03 00:48:36;;;;;;;;;;;;;;;20.50;64.48;101364.81;7405978;19;1495;-64
2022/11/03 00:51:06;;;;;;;;;;;;;;;20.48;64.37;101362.25;7407076;19;1847;-64
2022/11/03 00:53:35;;;;;;;;;;;;;;;20.52;64.11;101363.69;7409373;19;1354;-64
2022/11/03 00:56:04;;;;;;;;;;;;;;;20.48;64.29;101364.94;7409619;19;1276;-64
2022/11/03 00:58:32;;;;;;;;;;;;;;;20.48;64.43;101356.88;7409146;19;1581;-64
2022/11/03 01:01:06;;;;;;;;;;;;;;;20.47;64.21;101349.78;7403399;19;1539;-64
2022/11/03 01:03:35;;;;;;;;;;;;;;;20.49;64.17;101357.72;7406366;19;1610;-64
2022/11/03 01:08:44;;;;;;;;;;;;;;;20.49;63.90;101345.13;7410262;19;1333;-63
2022/11/03 01:13:54;;;;;;;;;;;;;;;20.49;63.95;101342.44;7407107;19;1640;-64
2022/11/03 01:16:25;;;;;;;;;;;;;;;20.53;64.12;101365.41;7406573;19;1419;-64
2022/11/03 01:18:54;;;;;;;;;;;;;;;20.50;64.12;101344.16;7408762;19;1533;-63
2022/11/03 01:21:22;;;;;;;;;;;;;;;20.47;64.22;101347.09;7408396;19;1336;-64
2022/11/03 01:23:50;;;;;;;;;;;;;;;20.49;64.16;101355.03;7408973;19;1268;-64
2022/11/03 01:26:19;;;;;;;;;;;;;;;20.49;64.21;101350.50;7408359;19;1766;-64
2022/11/03 01:28:48;;;;;;;;;;;;;;;20.47;64.28;101355.16;7408551;19;1749;-64
2022/11/03 01:31:18;;;;;;;;;;;;;;;20.48;64.28;101366.78;7406737;19;1876;-64
2022/11/03 01:33:49;;;;;;;;;;;;;;;20.46;64.42;101362.38;7407874;19;1599;-64
2022/11/03 01:36:18;;;;;;;;;;;;;;;20.46;64.19;101364.22;7407726;19;1451;-64
2022/11/03 01:38:46;;;;;;;;;;;;;;;20.48;64.08;101364.09;7408477;19;1345;-64
2022/11/03 01:41:16;;;;;;;;;;;;;;;20.46;64.47;101353.47;7408032;19;1414;-64
2022/11/03 01:43:44;;;;;;;;;;;;;;;20.43;64.20;101354.59;7408674;19;1063;-64
2022/11/03 01:46:18;;;;;;;;;;;;;;;20.48;64.09;101372.16;7403567;19;1687;-63
2022/11/03 01:48:51;;;;;;;;;;;;;;;20.48;64.36;101372.16;7407925;19;996;-63
2022/11/03 01:51:23;;;;;;;;;;;;;;;20.51;64.42;101371.88;7407645;19;1853;-63
2022/11/03 01:53:52;;;;;;;;;;;;;;;20.55;64.78;101389.44;7405716;19;1315;-63
2022/11/03 01:56:21;;;;;;;;;;;;;;;20.55;64.96;101387.63;7406287;19;1353;-69
2022/11/03 01:58:51;;;;;;;;;;;;;;;20.66;65.67;101392.94;7406327;19;1710;-63
2022/11/03 02:01:19;;;;;;;;;;;;;;;20.79;65.93;101386.50;7404462;19;1432;-64
2022/11/03 02:03:53;;;;;;;;;;;;;;;21.34;64.61;101381.69;7405066;19;1322;-63
2022/11/03 02:06:25;;;;;;;;;;;;;;;21.97;62.60;101386.00;7406328;19;1487;-63
2022/11/03 02:08:56;;;;;;;;;;;;;;;21.95;63.10;101379.91;7403916;19;1397;-68
2022/11/03 02:14:05;;;;;;;;;;;;;;;21.38;64.69;101388.50;7402612;19;1126;-61
2022/11/03 02:16:34;;;;;;;;;;;;;;;21.23;64.98;101384.50;7403534;19;1284;-61
2022/11/03 02:19:06;;;;;;;;;;;;;;;21.20;65.32;101396.34;7402037;19;1694;-62
2022/11/03 02:21:39;;;;;;;;;;;;;;;21.16;65.36;101388.72;7404964;19;1405;-63
2022/11/03 02:24:13;;;;;;;;;;;;;;;21.13;65.22;101380.88;7405791;19;1340;-62
2022/11/03 02:26:46;;;;;;;;;;;;;;;21.14;65.08;101396.06;7402343;19;1537;-63
2022/11/03 02:29:14;;;;;;;;;;;;;;;21.10;65.43;101395.47;7405993;19;1316;-65
2022/11/03 02:31:44;;;;;;;;;;;;;;;21.02;65.84;101398.81;7404887;19;1863;-63
2022/11/03 02:34:17;;;;;;;;;;;;;;;21.08;65.29;101407.34;7399902;19;1439;-63
2022/11/03 02:36:48;;;;;;;;;;;;;;;21.05;65.73;101393.19;7399951;19;1614;-64
2022/11/03 02:39:21;;;;;;;;;;;;;;;21.09;65.39;101395.59;7337304;19;13858;-63
2022/11/03 02:41:54;;;;;;;;;;;;;;;21.08;64.56;101407.34;7400476;19;1350;-63
2022/11/03 02:44:24;;;;;;;;;;;;;;;20.96;64.94;101399.34;7402644;19;1560;-64
2022/11/03 02:46:56;;;;;;;;;;;;;;;20.97;65.15;101414.53;7402318;19;1398;-63
2022/11/03 02:49:24;;;;;;;;;;;;;;;21.02;65.50;101393.44;7400803;19;1653;-65
2022/11/03 02:52:00;;;;;;;;;;;;;;;21.10;64.99;101391.94;7402313;19;1865;-64
2022/11/03 02:54:31;;;;;;;;;;;;;;;21.09;65.32;101399.16;7403452;19;1539;-65
2022/11/03 02:57:04;;;;;;;;;;;;;;;21.03;64.98;101395.16;7405671;19;1515;-65
2022/11/03 02:59:37;;;;;;;;;;;;;;;20.95;65.15;101370.78;7402766;19;1539;-65
2022/11/03 03:02:09;;;;;;;;;;;;;;;21.01;65.22;101390.91;7402474;19;1468;-65
2022/11/03 03:04:38;;;;;;;;;;;;;;;21.07;65.47;101387.69;7403758;19;1544;-66
2022/11/03 03:07:08;;;;;;;;;;;;;;;21.11;65.28;101396.31;7403750;19;1549;-64
2022/11/03 03:09:40;;;;;;;;;;;;;;;21.09;65.18;101404.53;7402618;19;1347;-65
2022/11/03 03:12:12;;;;;;;;;;;;;;;21.03;65.42;101416.69;7403705;19;1857;-64
2022/11/03 03:14:42;;;;;;;;;;;;;;;21.12;65.62;101441.06;7403239;19;1558;-65
2022/11/03 03:17:15;;;;;;;;;;;;;;;21.05;65.06;101435.38;7401939;19;1478;-65
2022/11/03 03:19:48;;;;;;;;;;;;;;;21.12;65.36;101433.00;7402735;19;1611;-65
2022/11/03 03:22:22;;;;;;;;;;;;;;;21.14;65.29;101433.72;7402690;19;1582;-60
2022/11/03 03:24:53;;;;;;;;;;;;;;;21.10;64.39;101443.03;7403129;19;1516;-61
2022/11/03 03:27:26;;;;;;;;;;;;;;;21.03;65.21;101440.88;7403851;19;1522;-61
2022/11/03 03:29:57;;;;;;;;;;;;;;;21.03;65.55;101435.50;7402458;19;1618;-61
2022/11/03 03:32:27;;;;;;;;;;;;;;;21.04;65.46;101434.50;7403045;19;1838;-60
2022/11/03 03:34:56;;;;;;;;;;;;;;;21.13;65.22;101437.38;7403753;19;1615;-61
2022/11/03 03:37:26;;;;;;;;;;;;;;;21.15;65.40;101446.16;7403068;19;1395;-60
2022/11/03 03:39:56;;;;;;;;;;;;;;;21.05;64.77;101446.13;7401913;19;1535;-60
2022/11/03 03:42:30;;;;;;;;;;;;;;;21.03;65.32;101443.56;7402337;19;1514;-60
2022/11/03 03:44:58;;;;;;;;;;;;;;;21.04;65.49;101456.00;7399288;19;2689;-61
2022/11/03 03:47:29;;;;;;;;;;;;;;;21.04;65.41;101439.88;7402641;19;943;-61
2022/11/03 03:49:58;;;;;;;;;;;;;;;21.10;65.60;101456.47;7402591;19;1616;-60
2022/11/03 03:52:26;;;;;;;;;;;;;;;21.13;65.35;101453.50;7402514;19;1855;-61
2022/11/03 03:54:55;;;;;;;;;;;;;;;21.05;65.11;101449.66;7402767;19;1523;-60
2022/11/03 03:57:24;;;;;;;;;;;;;;;21.01;64.92;101442.84;7402279;19;1555;-61
2022/11/03 03:59:55;;;;;;;;;;;;;;;21.12;65.21;101466.09;7401696;19;1618;-60
2022/11/03 04:02:24;;;;;;;;;;;;;;;21.03;65.64;101451.63;7400599;19;1358;-60
2022/11/03 04:04:52;;;;;;;;;;;;;;;21.05;65.57;101451.50;7403155;19;1603;-61
2022/11/03 04:10:01;;;;;;;;;;;;;;;20.99;64.89;101447.50;7405587;19;1500;-60
2022/11/03 04:23:16;;;;;;;;;;;;;;;20.87;65.83;101435.13;7411902;19;1618;-61
2022/11/03 04:25:49;;;;;;;;;;;;;;;20.90;66.08;101436.69;7409456;19;1651;-60
2022/11/03 04:28:17;;;;;;;;;;;;;;;20.86;66.02;101431.56;7409457;19;1434;-60
2022/11/03 04:30:48;;;;;;;;;;;;;;;20.91;65.89;101431.19;7408064;19;1483;-60
2022/11/03 04:33:18;;;;;;;;;;;;;;;20.88;65.99;101439.50;7407583;19;1873;-60
2022/11/03 04:35:47;;;;;;;;;;;;;;;20.88;66.04;101435.97;7410056;19;996;-61
2022/11/03 04:38:23;;;;;;;;;;;;;;;20.84;66.14;101433.53;7408012;19;1498;-61
2022/11/03 04:40:54;;;;;;;;;;;;;;;20.88;66.03;101450.25;7408855;19;1650;-63
2022/11/03 04:43:24;;;;;;;;;;;;;;;20.88;65.49;101439.50;7406204;19;1198;-65
2022/11/03 04:45:55;;;;;;;;;;;;;;;20.82;66.00;101440.88;7406796;19;1368;-64
2022/11/03 04:48:24;;;;;;;;;;;;;;;20.82;63.84;101442.72;7409107;19;1468;-65
2022/11/03 04:50:55;;;;;;;;;;;;;;;20.98;63.31;101448.47;7409885;19;1093;-66
2022/11/03 04:53:24;;;;;;;;;;;;;;;21.03;64.60;101448.09;7410020;19;1866;-69
2022/11/03 04:55:53;;;;;;;;;;;;;;;21.00;64.06;101451.88;7404217;19;1662;-74
2022/11/03 04:58:22;;;;;;;;;;;;;;;20.98;64.25;101461.06;7406153;19;1638;-64
2022/11/03 05:00:51;;;;;;;;;;;;;;;20.94;65.14;101465.84;7406475;19;1597;-69
2022/11/03 05:03:26;;;;;;;;;;;;;;;20.91;64.89;101486.75;7408842;19;1530;-67
2022/11/03 05:05:54;;;;;;;;;;;;;;;20.86;67.01;101490.69;7403293;19;1083;-67
2022/11/03 05:08:23;;;;;;;;;;;;;;;20.82;66.36;101500.00;7403112;19;1189;-69
2022/11/03 05:10:51;;;;;;;;;;;;;;;20.86;66.13;101489.84;7405273;19;1696;-68
2022/11/03 05:13:22;;;;;;;;;;;;;;;20.90;65.90;101499.38;7405238;19;1858;-68
2022/11/03 05:15:52;;;;;;;;;;;;;;;20.85;66.12;101504.31;7407573;19;1634;-67
2022/11/03 05:18:26;;;;;;;;;;;;;;;20.87;64.86;101505.03;7407886;19;1524;-68
2022/11/03 05:20:58;;;;;;;;;;;;;;;20.82;66.28;101507.22;7407486;19;1331;-67
2022/11/03 05:23:27;;;;;;;;;;;;;;;20.78;66.09;101501.25;7408186;19;929;-68
2022/11/03 05:25:58;;;;;;;;;;;;;;;20.82;66.21;101509.91;7406894;19;1490;-68
2022/11/03 05:28:27;;;;;;;;;;;;;;;20.85;66.17;101517.75;7407985;19;1478;-68
2022/11/03 05:30:56;;;;;;;;;;;;;;;20.85;66.59;101518.59;7406847;19;1682;-69
2022/11/03 05:33:29;;;;;;;;;;;;;;;20.86;66.78;101527.50;7406376;19;1856;-77
2022/11/03 05:35:59;;;;;;;;;;;;;;;20.87;66.30;101518.47;7407835;19;1550;-73
2022/11/03 05:38:30;;;;;;;;;;;;;;;20.93;65.71;101522.44;7405713;19;1399;-68
2022/11/03 05:40:59;;;;;;;;;;;;;;;20.93;65.07;101517.94;7408011;19;1705;-69
2022/11/03 05:43:27;;;;;;;;;;;;;;;20.85;64.58;101529.34;7406674;19;1762;-68
2022/11/03 05:45:59;;;;;;;;;;;;;;;20.78;63.31;101535.34;7407766;19;1501;-68
2022/11/03 05:48:33;;;;;;;;;;;;;;;20.78;63.55;101524.59;7403677;19;1423;-68
2022/11/03 05:51:02;;;;;;;;;;;;;;;20.71;63.40;101526.09;7407609;19;1394;-68
2022/11/03 05:53:32;;;;;;;;;;;;;;;20.66;61.32;101537.22;7406103;19;1846;-68
2022/11/03 05:56:01;;;;;;;;;;;;;;;20.71;64.51;101520.72;7407848;19;1070;-68
2022/11/03 05:58:32;;;;;;;;;;;;;;;20.66;64.91;101534.53;7408155;19;1670;-68
2022/11/03 06:01:02;;;;;;;;;;;;;;;20.65;65.39;101536.38;7406718;19;1631;-68
2022/11/03 06:03:36;;;;;;;;;;;;;;;20.62;65.02;101541.16;7402253;19;1430;-68
2022/11/03 06:06:04;;;;;;;;;;;;;;;20.66;64.78;101551.50;7407574;19;1774;-68
2022/11/03 06:08:36;;;;;;;;;;;;;;;20.62;65.49;101533.09;7407805;19;1355;-68
2022/11/03 06:11:05;;;;;;;;;;;;;;;20.63;65.13;101530.28;7408578;19;954;-68
2022/11/03 06:13:36;;;;;;;;;;;;;;;20.66;65.18;101535.38;7405114;19;1861;-68
2022/11/03 06:16:06;;;;;;;;;;;;;;;20.65;65.44;101540.88;7406162;19;1320;-68
2022/11/03 06:18:38;;;;;;;;;;;;;;;20.68;65.34;101562.16;7407861;19;1002;-67
2022/11/03 06:21:08;;;;;;;;;;;;;;;20.66;65.04;101556.03;7407700;19;1222;-68
2022/11/03 06:23:37;;;;;;;;;;;;;;;20.64;65.19;101572.28;7407023;19;1679;-68
2022/11/03 06:26:11;;;;;;;;;;;;;;;20.68;65.19;101580.13;7406075;19;1772;-68
2022/11/03 06:28:40;;;;;;;;;;;;;;;20.66;65.10;101556.88;7406288;19;1767;-68
2022/11/03 06:31:15;;;;;;;;;;;;;;;20.65;65.29;101551.63;7406628;19;1638;-68
2022/11/03 06:33:46;;;;;;;;;;;;;;;20.63;65.33;101543.72;7405074;19;1859;-68
2022/11/03 06:36:17;;;;;;;;;;;;;;;20.66;65.10;101566.78;7405734;19;1488;-68
2022/11/03 06:38:49;;;;;;;;;;;;;;;20.73;65.06;101570.69;7406424;19;1352;-68
2022/11/03 06:41:22;;;;;;;;;;;;;;;20.69;65.25;101581.81;7407266;19;945;-68
2022/11/03 06:43:51;;;;;;;;;;;;;;;20.69;65.42;101571.06;7405493;19;1596;-68
2022/11/03 06:46:21;;;;;;;;;;;;;;;20.73;65.39;101597.56;7405332;19;1355;-68
2022/11/03 06:48:52;;;;;;;;;;;;;;;20.68;65.13;101589.03;7406947;19;974;-68
2022/11/03 06:51:22;;;;;;;;;;;;;;;20.68;65.15;101588.19;7406871;19;934;-68
2022/11/03 06:53:51;;;;;;;;;;;;;;;20.72;65.08;101590.47;7404486;19;1857;-68
2022/11/03 06:56:21;;;;;;;;;;;;;;;20.71;65.30;101582.53;7405730;19;1631;-68
2022/11/03 06:58:50;;;;;;;;;;;;;;;20.73;65.03;101596.69;7405518;19;1755;-68
2022/11/03 07:01:21;;;;;;;;;;;;;;;20.71;65.09;101588.78;7404928;19;1437;-68
2022/11/03 07:03:54;;;;;;;;;;;;;;;20.73;65.06;101586.81;7404532;19;1442;-68
2022/11/03 07:06:23;;;;;;;;;;;;;;;20.74;65.12;101593.03;7404869;19;1634;-68
2022/11/03 07:08:53;;;;;;;;;;;;;;;20.71;65.13;101599.53;7404413;19;1502;-68
2022/11/03 07:11:22;;;;;;;;;;;;;;;20.73;65.33;101596.69;7404883;19;1591;-68
2022/11/03 07:13:51;;;;;;;;;;;;;;;20.74;65.16;101593.88;7404518;19;1854;-68
2022/11/03 07:16:27;;;;;;;;;;;;;;;20.75;65.08;101595.59;7406079;19;945;-68
2022/11/03 07:19:00;;;;;;;;;;;;;;;20.77;64.93;101603.53;7402397;19;1740;-68
2022/11/03 07:21:34;;;;;;;;;;;;;;;20.76;65.08;101605.38;7404500;19;1347;-60
2022/11/03 07:24:04;;;;;;;;;;;;;;;20.78;65.07;101600.72;7404565;19;1309;-60
2022/11/03 07:26:34;;;;;;;;;;;;;;;20.78;64.93;101605.25;7404383;19;1504;-60
2022/11/03 07:29:02;;;;;;;;;;;;;;;20.84;64.83;101607.41;7404996;19;1545;-60
2022/11/03 07:31:31;;;;;;;;;;;;;;;20.84;64.75;101605.56;7405222;19;1007;-60
2022/11/03 07:34:02;;;;;;;;;;;;;;;20.90;64.57;101612.28;7400594;19;1858;-60
2022/11/03 07:36:32;;;;;;;;;;;;;;;20.90;64.56;101614.97;7404912;19;1528;-60
2022/11/03 07:39:03;;;;;;;;;;;;;;;20.89;64.54;101589.09;7404491;19;1611;-60
2022/11/03 07:41:34;;;;;;;;;;;;;;;20.92;64.43;101617.53;7404143;19;1623;-60
2022/11/03 07:44:03;;;;;;;;;;;;;;;20.88;64.33;101619.63;7404885;19;971;-60
2022/11/03 07:46:32;;;;;;;;;;;;;;;20.92;64.56;101607.63;7408549;19;1685;-60
2022/11/03 07:49:07;;;;;;;;;;;;;;;20.93;64.33;101614.72;7411312;19;1316;-60
2022/11/03 07:51:39;;;;;;;;;;;;;;;20.93;64.53;101606.66;7411811;19;1590;-60
2022/11/03 07:54:14;;;;;;;;;;;;;;;20.94;64.24;101619.13;7410509;19;1842;-60
2022/11/03 07:56:44;;;;;;;;;;;;;;;20.93;64.19;101603.97;7412274;19;984;-60
2022/11/03 07:59:15;;;;;;;;;;;;;;;20.98;64.22;101587.44;7411634;19;1769;-60
2022/11/03 08:01:44;;;;;;;;;;;;;;;20.99;64.48;101595.41;7409555;19;1616;-60
2022/11/03 08:04:18;;;;;;;;;;;;;;;20.97;64.37;101594.66;7409860;19;1602;-60
2022/11/03 08:06:47;;;;;;;;;;;;;;;21.00;64.34;101599.78;7409339;19;1442;-60
2022/11/03 08:09:15;;;;;;;;;;;;;;;20.98;64.28;101588.28;7411240;19;1615;-60
2022/11/03 08:11:43;;;;;;;;;;;;;;;21.01;64.25;101595.28;7411155;19;1395;-60
2022/11/03 08:14:12;;;;;;;;;;;;;;;20.99;64.25;101590.03;7408713;19;1862;-60
2022/11/03 08:16:40;;;;;;;;;;;;;;;20.97;64.23;101588.41;7411722;19;983;-60
2022/11/03 08:19:08;;;;;;;;;;;;;;;20.98;64.21;101572.16;7408701;19;1725;-60
2022/11/03 08:21:39;;;;;;;;;;;;;;;20.97;64.19;101583.03;7411323;19;1540;-60
2022/11/03 08:24:08;;;;;;;;;;;;;;;21.05;64.47;101581.44;7410259;19;1590;-60
2022/11/03 08:26:36;;;;;;;;;;;;;;;20.98;64.27;101572.16;7410645;19;1547;-60
2022/11/03 08:29:04;;;;;;;;;;;;;;;21.00;64.61;101572.88;7410634;19;1324;-60
2022/11/03 08:31:33;;;;;;;;;;;;;;;21.03;64.51;101558.34;7411196;19;1074;-60
2022/11/03 08:34:01;;;;;;;;;;;;;;;21.02;64.15;101568.22;7406135;19;1846;-60
2022/11/03 08:36:29;;;;;;;;;;;;;;;21.03;64.38;101577.19;7410266;19;1543;-60
2022/11/03 08:39:00;;;;;;;;;;;;;;;21.04;64.27;101577.03;7409751;19;1548;-60
2022/11/03 08:41:29;;;;;;;;;;;;;;;21.03;64.38;101579.88;7410329;19;1588;-60
2022/11/03 08:43:57;;;;;;;;;;;;;;;21.08;64.47;101584.84;7409595;19;1645;-60
2022/11/03 08:46:25;;;;;;;;;;;;;;;21.05;64.16;101576.06;7410637;19;1007;-60
2022/11/03 08:48:53;;;;;;;;;;;;;;;21.05;64.37;101576.06;7406866;19;1682;-61
2022/11/03 08:51:22;;;;;;;;;;;;;;;21.02;64.46;101565.53;7409302;19;1399;-60
2022/11/03 08:53:52;;;;;;;;;;;;;;;21.04;64.24;101566.25;7408603;19;1855;-60
2022/11/03 08:56:23;;;;;;;;;;;;;;;21.02;64.21;101562.84;7407154;19;1632;-60
2022/11/03 08:58:52;;;;;;;;;;;;;;;21.03;64.22;101566.41;7410956;19;1024;-60
2022/11/03 09:01:20;;;;;;;;;;;;;;;21.02;64.55;101572.75;7408859;19;1461;-60
2022/11/03 09:03:48;;;;;;;;;;;;;;;21.05;64.34;101581.44;7404681;19;1770;-60
2022/11/03 09:06:16;;;;;;;;;;;;;;;21.02;64.42;101565.53;7408605;19;1351;-60
2022/11/03 09:08:45;;;;;;;;;;;;;;;21.02;64.30;101562.84;7409062;19;1347;-60
2022/11/03 09:11:13;;;;;;;;;;;;;;;21.03;64.43;101564.56;7410252;19;942;-60
2022/11/03 09:13:44;;;;;;;;;;;;;;;21.01;64.38;101554.94;7406677;19;1868;-60
2022/11/03 09:16:13;;;;;;;;;;;;;;;21.02;64.19;101553.94;7409772;19;1536;-60
2022/11/03 09:18:41;;;;;;;;;;;;;;;21.01;64.07;101547.72;7406889;19;1618;-60
2022/11/03 09:21:10;;;;;;;;;;;;;;;21.01;64.54;101539.66;7410077;19;988;-60
2022/11/03 09:23:38;;;;;;;;;;;;;;;21.03;64.34;101532.31;7408899;19;1642;-60
2022/11/03 09:26:07;;;;;;;;;;;;;;;21.02;64.37;101532.44;7408533;19;1644;-60
2022/11/03 09:28:35;;;;;;;;;;;;;;;21.01;64.09;101545.03;7408475;19;1647;-60
2022/11/03 09:31:06;;;;;;;;;;;;;;;21.02;64.05;101541.34;7405752;19;1549;-60
2022/11/03 09:33:34;;;;;;;;;;;;;;;21.00;64.17;101529.88;7407480;19;1859;-60
2022/11/03 09:36:03;;;;;;;;;;;;;;;21.01;64.29;101525.34;7408468;19;1510;-60
2022/11/03 09:38:31;;;;;;;;;;;;;;;21.06;64.28;101539.25;7409540;19;1004;-60
2022/11/03 09:41:00;;;;;;;;;;;;;;;21.01;64.19;101528.91;7408475;19;956;-60
2022/11/03 09:43:28;;;;;;;;;;;;;;;21.03;64.22;101526.94;7405812;19;1678;-60
2022/11/03 09:45:57;;;;;;;;;;;;;;;21.02;64.18;101516.28;7407706;19;1670;-60
2022/11/03 09:48:28;;;;;;;;;;;;;;;21.05;64.17;101527.66;7407708;19;1422;-60
2022/11/03 09:50:56;;;;;;;;;;;;;;;21.09;63.96;101512.09;7408038;19;1535;-60
2022/11/03 09:53:25;;;;;;;;;;;;;;;21.09;64.25;101513.91;7409099;19;1033;-60
2022/11/03 09:55:53;;;;;;;;;;;;;;;21.09;64.15;101514.81;7406266;19;1849;-60
2022/11/03 09:58:21;;;;;;;;;;;;;;;21.09;63.89;101501.34;7407321;19;1673;-60
2022/11/03 10:00:50;;;;;;;;;;;;;;;21.11;63.80;101514.66;7405966;19;1770;-61
2022/11/03 10:03:19;;;;;;;;;;;;;;;21.13;64.30;101507.28;7407864;19;1539;-60
2022/11/03 10:05:50;;;;;;;;;;;;;;;21.15;63.86;101499.94;7408039;19;944;-60
2022/11/03 10:08:22;;;;;;;;;;;;;;;21.12;64.09;101498.38;7407536;19;938;-60
2022/11/03 10:10:51;;;;;;;;;;;;;;;21.14;63.86;101492.88;7406907;19;1628;-60
2022/11/03 10:13:23;;;;;;;;;;;;;;;21.14;64.00;101493.72;7407310;19;1681;-60
2022/11/03 10:15:52;;;;;;;;;;;;;;;21.15;63.90;101494.56;7404617;19;1811;-60
2022/11/03 10:18:20;;;;;;;;;;;;;;;21.15;63.93;101478.44;7406711;19;1323;-60
2022/11/03 10:20:51;;;;;;;;;;;;;;;21.15;63.89;101487.38;7407603;19;991;-60
2022/11/03 10:23:19;;;;;;;;;;;;;;;21.13;63.93;101462.44;7407994;19;953;-60
2022/11/03 10:25:49;;;;;;;;;;;;;;;21.11;64.21;101463.53;7406731;19;1758;-60
2022/11/03 10:28:18;;;;;;;;;;;;;;;21.09;64.17;101471.78;7406332;19;1666;-60
2022/11/03 10:30:50;;;;;;;;;;;;;;;21.12;64.09;101462.56;7405828;19;1668;-60
2022/11/03 10:33:29;;;;;;;;;;;;;;;21.11;63.96;101455.47;7405868;19;1422;-60
2022/11/03 10:36:01;;;;;;;;;;;;;;;21.17;64.09;101465.69;7405314;19;1838;-60
2022/11/03 10:38:32;;;;;;;;;;;;;;;21.12;63.82;101446.44;7407463;19;935;-60
2022/11/03 10:41:13;;;;;;;;;;;;;;;21.10;63.88;101433.13;7407052;19;993;-60
2022/11/03 10:43:42;;;;;;;;;;;;;;;21.12;63.94;101441.91;7406759;19;993;-68
2022/11/03 10:46:16;;;;;;;;;;;;;;;21.11;63.89;101436.66;7406631;19;1667;-60
2022/11/03 10:48:45;;;;;;;;;;;;;;;21.12;63.87;101441.06;7401925;19;1573;-68
2022/11/03 10:51:16;;;;;;;;;;;;;;;21.09;63.94;101426.06;7404837;19;1355;-60
2022/11/03 10:53:44;;;;;;;;;;;;;;;21.09;63.85;101433.25;7406380;19;1575;-68
2022/11/03 10:56:13;;;;;;;;;;;;;;;21.16;63.96;101437.13;7404870;19;1861;-68
2022/11/03 10:58:41;;;;;;;;;;;;;;;21.07;64.03;101422.66;7406489;19;1055;-68
2022/11/03 11:01:11;;;;;;;;;;;;;;;21.09;63.93;101419.81;7404443;19;1678;-67
2022/11/03 11:03:41;;;;;;;;;;;;;;;21.09;64.14;101419.81;7402497;19;1344;-68
2022/11/03 11:06:20;;;;;;;;;;;;;;;21.11;64.04;101424.09;7405769;19;1629;-68
2022/11/03 11:08:49;;;;;;;;;;;;;;;21.07;64.05;101409.19;7405262;19;1399;-68
2022/11/03 11:11:18;;;;;;;;;;;;;;;21.05;64.07;101395.88;7405745;19;972;-68
2022/11/03 11:13:46;;;;;;;;;;;;;;;21.06;63.77;101400.25;7402449;19;1474;-68
2022/11/03 11:16:33;;;;;;;;;;;;;;;21.07;63.90;101390.38;7403474;19;1864;-68
2022/11/03 11:19:02;;;;;;;;;;;;;;;21.08;64.11;101402.81;7402311;19;1556;-68
2022/11/03 11:21:46;;;;;;;;;;;;;;;21.11;63.89;101390.94;7404743;19;1666;-68
2022/11/03 11:24:37;;;;;;;;;;;;;;;21.09;63.82;101390.22;7404696;19;1349;-68
2022/11/03 11:27:25;;;;;;;;;;;;;;;21.09;63.93;101382.16;7404656;19;2093;-68
2022/11/03 11:29:56;;;;;;;;;;;;;;;21.08;63.71;101388.53;7402201;19;1727;-68
2022/11/03 11:32:42;;;;;;;;;;;;;;;21.09;63.98;101383.03;7404325;19;946;-68
2022/11/03 11:35:11;;;;;;;;;;;;;;;21.08;64.00;101364.34;7402485;19;1842;-68
2022/11/03 11:37:40;;;;;;;;;;;;;;;21.09;63.82;101363.31;7405653;19;1567;-69
2022/11/03 11:40:13;;;;;;;;;;;;;;;21.13;63.87;101372.81;7403820;19;1443;-68
2022/11/03 11:42:56;;;;;;;;;;;;;;;21.14;63.85;101361.09;7404457;19;1598;-68
2022/11/03 11:45:39;;;;;;;;;;;;;;;21.18;63.70;101365.22;7403484;19;1455;-68
2022/11/03 11:48:18;;;;;;;;;;;;;;;21.14;63.91;101359.25;7400471;19;1678;-68
2022/11/03 11:50:46;;;;;;;;;;;;;;;21.21;63.88;101365.81;7405885;19;1012;-68
2022/11/03 11:53:20;;;;;;;;;;;;;;;21.17;63.57;101347.38;7401711;19;1361;-68
2022/11/03 11:55:56;;;;;;;;;;;;;;;21.19;63.70;101345.41;7403571;19;1858;-68
2022/11/03 11:58:27;;;;;;;;;;;;;;;21.13;64.06;101332.47;7402779;19;1769;-68
2022/11/03 12:00:57;;;;;;;;;;;;;;;21.13;64.08;101335.19;7403424;19;1387;-68
2022/11/03 12:03:30;;;;;;;;;;;;;;;21.16;63.96;101338.44;7404495;19;1018;-68
2022/11/03 12:05:59;;;;;;;;;;;;;;;21.20;63.75;101337.19;7405412;19;1017;-70
2022/11/03 12:08:29;;;;;;;;;;;;;;;21.20;64.31;101333.66;7404285;19;1494;-71
2022/11/03 12:10:58;;;;;;;;;;;;;;;21.29;64.33;101327.47;7403794;19;1635;-62
2022/11/03 12:13:42;;;;;;;;;;;;;;;21.29;64.57;101330.16;7403824;19;1621;-78
2022/11/03 12:16:10;;;;;;;;;;;;;;;21.28;64.42;101328.44;7397158;19;1852;-70
2022/11/03 12:18:42;;;;;;;;;;;;;;;21.24;63.28;101311.72;7404174;19;1614;-70
2022/11/03 12:21:13;;;;;;;;;;;;;;;21.26;64.15;101319.66;7401424;19;1521;-76
2022/11/03 12:23:42;;;;;;;;;;;;;;;21.29;63.54;101330.16;7404000;19;1606;-70
2022/11/03 12:26:18;;;;;;;;;;;;;;;21.33;64.47;101326.19;7404523;19;1031;-71
2022/11/03 12:28:46;;;;;;;;;;;;;;;21.23;64.29;101306.50;7404519;19;998;-70
2022/11/03 12:31:14;;;;;;;;;;;;;;;21.25;64.02;101307.22;7406681;19;1687;-69
2022/11/03 12:33:45;;;;;;;;;;;;;;;21.24;63.97;101311.72;7407821;19;1540;-70
2022/11/03 12:36:14;;;;;;;;;;;;;;;21.22;64.58;101311.00;7408901;19;1861;-70
2022/11/03 12:38:42;;;;;;;;;;;;;;;21.19;64.31;101313.13;7411702;19;1627;-70
2022/11/03 12:41:23;;;;;;;;;;;;;;;21.18;64.38;101312.25;7410958;19;1135;-70
2022/11/03 12:43:52;;;;;;;;;;;;;;;21.19;64.52;101303.22;7412067;19;1028;-70
2022/11/03 12:46:21;;;;;;;;;;;;;;;21.20;64.43;101304.91;7408730;19;1382;-70
2022/11/03 12:48:52;;;;;;;;;;;;;;;21.18;64.25;101309.56;7407223;19;1757;-70
2022/11/03 12:51:21;;;;;;;;;;;;;;;21.17;64.52;101293.56;7409839;19;1579;-70
2022/11/03 12:53:49;;;;;;;;;;;;;;;21.18;64.23;101296.13;7410423;19;1348;-68
2022/11/03 12:56:18;;;;;;;;;;;;;;;21.20;64.55;101282.56;7409116;19;1849;-69
2022/11/03 12:58:47;;;;;;;;;;;;;;;21.21;64.62;101285.09;7410574;19;1004;-68
2022/11/03 13:01:15;;;;;;;;;;;;;;;21.24;64.47;101286.66;7407392;19;1685;-74
2022/11/03 13:03:44;;;;;;;;;;;;;;;21.20;64.72;101301.38;7407261;19;1584;-65
2022/11/03 13:06:15;;;;;;;;;;;;;;;21.24;65.44;101283.97;7409289;19;1603;-66
2022/11/03 13:08:43;;;;;;;;;;;;;;;21.21;65.51;101289.66;7408293;19;1313;-68
2022/11/03 13:13:52;;;;;;;;;;;;;;;21.18;65.69;101289.91;7404573;19;1769;-68
2022/11/03 13:16:21;;;;;;;;;;;;;;;21.18;65.45;101296.13;7406926;19;1857;-70
2022/11/03 13:18:49;;;;;;;;;;;;;;;21.18;65.55;101280.00;7406714;19;1612;-64
2022/11/03 13:21:20;;;;;;;;;;;;;;;21.17;65.53;101283.69;7408222;19;1354;-66
2022/11/03 13:23:48;;;;;;;;;;;;;;;21.04;63.05;101286.59;7408223;19;1435;-65
2022/11/03 13:26:16;;;;;;;;;;;;;;;20.95;59.82;101282.06;7408800;19;1687;-65
2022/11/03 13:28:45;;;;;;;;;;;;;;;20.90;58.56;101275.38;7405286;19;1494;-65